Wales, AK

1:26 PM AKST on February 24, 2017 (GMT -0900)
Tin City LRRS | | Change Station
Active Advisory: Winter Storm Warning

Elev 269 ft 65.56 °N, 167.92 °W | Updated 18 minutes ago

Light Snow
Light Snow
5 °F
Feels Like -16 °F
N
21
Wind Variable Wind from NNE
Gusts 29 mph

Today
High -- | Low -- °F
--% Chance of Precip.
Yesterday
High -- | Low -- °F
Precip. -- in
Pressure 29.93 in
Visibility 3.0 miles
Clouds Overcast 500 ft
Windchill -16 °F
Dew Point 3 °F
Humidity 92%
Rainfall 0.00 in
Snow Depth Not available.
9:39 AM 7:11 PM
Waning Crescent, 3% visible
SPECI PATC 242208Z AUTO 03018G25KT 3SM -SN OVC005 M15/M16 A2990 RMK AO2 SLP135
Pressure 29.93 in
Visibility 3.0 miles
Clouds Overcast 500 ft
Windchill -16 °F
Dew Point 3 °F
Humidity 92%
Rainfall 0.00 in
Snow Depth Not available.
9:39 AM 7:11 PM
Waning Crescent, 3% visible
SPECI PATC 242208Z AUTO 03018G25KT 3SM -SN OVC005 M15/M16 A2990 RMK AO2 SLP135

Get Your Daily Forecast Email!

Thanks for signing up!

Be on the lookout for a verification email in your inbox.

You'll start receiving the daily forecast at 8 AM.

×

10-Day Weather Forecast

Almanac

Astronomy

Feb. 24, 2017 Rise Set
Actual Time
Civil Twilight
Nautical Twilight
Astronomical Twilight
Moon
Length of Visible Light
Length of Day
Tomorrow will be .
, % of the Moon is Illuminated

Today's Extremes

State Highs State Lows

Community

WunderPhotos

Upload Photos

1,962,540 photos uploaded!

WunderBlog® & News

Nearby

Air Quality

  Air Quality AQ Index Pollutant
Not available.

Snow Depth

Station Depth Elevation

Earthquake Activity

City Distance Mag. Time & Date
Minimum magnitude displayed is 2.5.

Coastal Water Temperatures

Place Temperature

Stations

Nearby Weather Stations

Station Location Temp. Windchill Dew Point Humidity Wind Precip. Elev Updated Type
                   

Watches & Warnings

Winter Storm Warning
Issued: 1:19 PM AKST Feb. 24, 2017 – National Weather Service

... Winter Storm Warning remains in effect until 6 am akst
Sunday...

* snow... total snow accumulation 6 to 12 inches.

* Blowing snow... reducing visibility to one half mile or less at
times.

* Winds... east 25 to 35 mph gusting to 55 mph. The strongest
winds and lowest visibilities are expected Saturday.

* Timing... snow heavy at times will continue through Sunday
morning. The strongest winds and lowest visibilities are
expected Saturday.

* Impacts... visibility may be greatly reduced. Travel and
outdoor activities will be difficult.

Precautionary/preparedness actions...

A Winter Storm Warning means one or more significant winter
weather hazards are occurring or expected.